createdAt,value
2023-02-11T00:00:39.298Z,18.89
2023-02-11T00:01:39.096Z,18.39
2023-02-11T00:02:39.070Z,18.60
2023-02-11T00:03:45.237Z,18.79
2023-02-11T00:04:39.053Z,18.39
2023-02-11T00:05:39.044Z,19.10
2023-02-11T00:06:39.030Z,18.39
2023-02-11T00:07:39.236Z,16.79
2023-02-11T00:08:39.018Z,15.39
2023-02-11T00:09:39.010Z,17.10
2023-02-11T00:10:38.987Z,16.89
2023-02-11T00:11:38.987Z,17.70
2023-02-11T00:12:44.981Z,17.70
2023-02-11T00:13:38.976Z,19.39
2023-02-11T00:14:38.948Z,17.79
2023-02-11T00:15:38.951Z,17.39
2023-02-11T00:16:39.034Z,17.79
2023-02-11T00:17:44.943Z,18.00
2023-02-11T00:18:38.916Z,17.60
2023-02-11T00:19:38.924Z,17.89
2023-02-11T00:20:38.892Z,18.79
2023-02-11T00:21:38.892Z,16.89
2023-02-11T00:22:38.865Z,17.89
2023-02-11T00:34:38.744Z,19.60
2023-02-11T00:41:38.673Z,20.39
2023-02-11T00:42:38.662Z,20.10
2023-02-11T00:43:38.661Z,19.00
2023-02-11T00:44:38.641Z,18.79
2023-02-11T00:45:38.636Z,18.00
2023-02-11T00:46:38.669Z,18.70
2023-02-11T00:47:38.637Z,19.39
2023-02-11T00:48:38.595Z,19.29
2023-02-11T00:49:38.592Z,19.50
2023-02-11T00:50:38.576Z,18.29
2023-02-11T00:51:38.601Z,19.20
2023-02-11T00:52:38.561Z,19.70
2023-02-11T00:53:38.550Z,19.60
2023-02-11T00:54:38.737Z,18.10
2023-02-11T00:55:38.535Z,19.20
2023-02-11T00:56:38.511Z,17.70
2023-02-11T00:57:38.512Z,20.60
2023-02-11T00:58:38.499Z,21.10
2023-02-11T00:59:38.694Z,20.29
2023-02-11T01:00:38.472Z,21.00
2023-02-11T01:01:38.525Z,21.10
2023-02-11T01:02:38.452Z,19.79
2023-02-11T01:03:38.459Z,20.39
2023-02-11T01:04:38.431Z,18.70
2023-02-11T01:05:38.577Z,19.20
2023-02-11T01:06:38.418Z,19.29
2023-02-11T01:07:38.435Z,20.60
2023-02-11T01:08:38.398Z,19.79
2023-02-11T01:09:38.390Z,21.00
2023-02-11T01:10:38.373Z,20.50
2023-02-11T01:11:38.382Z,20.39
2023-02-11T01:12:38.356Z,21.79
2023-02-11T01:13:44.366Z,22.70
2023-02-11T01:14:38.338Z,20.70
2023-02-11T01:15:38.408Z,19.50
2023-02-11T01:16:38.331Z,21.29
2023-02-11T01:17:38.312Z,20.79
2023-02-11T01:18:38.295Z,19.20
2023-02-11T01:19:38.292Z,21.50
2023-02-11T01:20:38.271Z,20.79
2023-02-11T01:21:38.273Z,20.20
2023-02-11T01:22:38.267Z,18.60
2023-02-11T01:23:38.273Z,18.89
2023-02-11T01:24:38.440Z,21.10
2023-02-11T01:25:38.253Z,22.10
2023-02-11T01:26:38.227Z,21.10
2023-02-11T01:27:38.222Z,20.39
2023-02-11T01:28:38.234Z,20.39
2023-02-11T01:29:38.389Z,20.79
2023-02-11T01:30:38.188Z,20.29
2023-02-11T01:31:38.323Z,20.39
2023-02-11T01:32:38.153Z,18.70
2023-02-11T01:33:38.151Z,20.39
2023-02-11T01:34:38.138Z,19.60
2023-02-11T01:35:38.129Z,19.89
2023-02-11T01:36:38.108Z,20.10
2023-02-11T01:37:38.107Z,16.70
2023-02-11T01:38:38.108Z,22.10
2023-02-11T01:39:38.111Z,21.10
2023-02-11T01:40:38.069Z,20.89
2023-02-11T01:41:38.071Z,17.70
2023-02-11T01:42:38.045Z,18.79
2023-02-11T01:43:38.045Z,20.89
2023-02-11T01:44:38.040Z,22.39
2023-02-11T01:45:38.029Z,21.00
2023-02-11T01:46:38.062Z,20.60
2023-02-11T01:47:38.009Z,21.20
2023-02-11T01:48:37.984Z,22.00
2023-02-11T01:49:38.116Z,21.50
2023-02-11T01:50:37.971Z,21.10
2023-02-11T01:51:37.966Z,18.79
2023-02-11T01:52:37.952Z,20.29
2023-02-11T01:53:37.945Z,20.20
2023-02-11T01:54:37.927Z,21.10
2023-02-11T01:55:37.950Z,20.00
2023-02-11T01:56:37.914Z,19.79
2023-02-11T01:57:37.914Z,20.00
2023-02-11T01:58:37.885Z,19.20
2023-02-11T01:59:43.885Z,23.20
2023-02-11T02:00:37.876Z,19.29
2023-02-11T02:01:37.889Z,18.89
2023-02-11T02:02:37.861Z,18.50
2023-02-11T02:03:37.895Z,18.60
2023-02-11T02:04:37.837Z,18.70
2023-02-11T02:05:37.820Z,18.39
2023-02-11T02:06:37.825Z,21.20
2023-02-11T02:07:37.799Z,18.50
2023-02-11T02:08:37.792Z,17.00
2023-02-11T02:09:37.780Z,18.20
2023-02-11T02:10:37.780Z,19.89
2023-02-11T02:11:37.777Z,18.60
2023-02-11T02:12:37.752Z,21.29
2023-02-11T02:13:37.753Z,20.29
2023-02-11T02:14:37.732Z,18.10
2023-02-11T02:15:37.706Z,19.79
2023-02-11T02:16:37.850Z,18.70
2023-02-11T02:17:37.697Z,17.60
2023-02-11T02:18:37.690Z,18.29
2023-02-11T02:19:37.668Z,16.29
2023-02-11T02:20:37.667Z,17.60
2023-02-11T02:21:37.658Z,17.70
2023-02-11T02:22:37.644Z,18.29
2023-02-11T02:23:37.623Z,18.10
2023-02-11T02:24:37.626Z,20.39
2023-02-11T02:25:37.605Z,18.00
2023-02-11T02:26:37.602Z,21.10
2023-02-11T02:27:37.626Z,18.10
2023-02-11T02:28:37.582Z,17.50
2023-02-11T02:29:37.565Z,17.79
2023-02-11T02:30:37.607Z,20.00
2023-02-11T02:31:37.616Z,19.70
2023-02-11T02:32:37.544Z,19.29
2023-02-11T02:33:37.521Z,18.89
2023-02-11T02:34:37.523Z,17.79
2023-02-11T02:35:37.509Z,21.20
2023-02-11T02:36:37.521Z,20.39
2023-02-11T02:37:37.486Z,18.20
2023-02-11T02:38:37.479Z,17.39
2023-02-11T02:39:37.476Z,21.89
2023-02-11T02:40:37.457Z,18.10
2023-02-11T02:41:37.441Z,17.39
2023-02-11T02:42:37.439Z,17.39
2023-02-11T02:43:37.443Z,18.20
2023-02-11T02:44:37.430Z,18.89
2023-02-11T02:45:37.401Z,17.60
2023-02-11T02:46:37.428Z,16.29
2023-02-11T02:47:37.377Z,16.50
2023-02-11T02:48:37.390Z,20.29
2023-02-11T02:49:37.368Z,17.50
2023-02-11T02:50:37.356Z,16.60
2023-02-11T02:51:37.541Z,15.89
2023-02-11T02:52:37.339Z,18.20
2023-02-11T02:53:37.316Z,17.00
2023-02-11T02:54:37.418Z,15.60
2023-02-11T02:55:37.299Z,17.50
2023-02-11T02:56:37.302Z,17.60
2023-02-11T02:57:37.287Z,14.39
2023-02-11T02:58:37.280Z,14.39
2023-02-11T02:59:37.286Z,15.39
2023-02-11T03:46:36.790Z,19.70
2023-02-11T03:47:36.898Z,17.29
2023-02-11T03:48:36.766Z,18.00
2023-02-11T03:49:36.752Z,18.60
2023-02-11T03:50:36.753Z,18.29
2023-02-11T03:51:36.729Z,16.50
2023-02-11T03:52:42.938Z,17.29
2023-02-11T03:53:36.708Z,17.79
2023-02-11T03:54:36.707Z,18.89
2023-02-11T03:55:36.690Z,17.50
2023-02-11T03:56:36.687Z,15.80
2023-02-11T03:57:37.684Z,15.30
2023-02-11T03:58:36.667Z,15.39
2023-02-11T03:59:36.650Z,17.10
2023-02-11T04:00:36.668Z,16.39
2023-02-11T04:01:36.624Z,15.00
2023-02-11T04:02:36.624Z,16.29
2023-02-11T04:03:36.704Z,17.20
2023-02-11T04:04:36.610Z,15.30
2023-02-11T04:05:36.594Z,16.79
2023-02-11T04:06:36.585Z,15.60
2023-02-11T04:07:36.570Z,14.19
2023-02-11T04:09:15.319Z,14.50
2023-02-11T04:10:15.313Z,14.19
2023-02-11T04:11:15.287Z,15.10
2023-02-11T04:12:15.290Z,16.29
2023-02-11T04:13:15.275Z,15.80
2023-02-11T04:14:15.274Z,14.60
2023-02-11T04:15:15.256Z,14.60
2023-02-11T04:16:15.269Z,14.60
2023-02-11T04:17:15.233Z,14.50
2023-02-11T04:18:15.231Z,15.00
2023-02-11T04:19:15.234Z,15.00
2023-02-11T04:20:15.206Z,16.20
2023-02-11T04:21:15.190Z,14.69
2023-02-11T04:22:15.195Z,14.50
2023-02-11T04:23:15.178Z,14.00
2023-02-11T04:24:15.171Z,16.10
2023-02-11T04:25:15.150Z,15.10
2023-02-11T04:26:15.151Z,15.60
2023-02-11T04:27:15.142Z,13.80
2023-02-11T04:28:15.186Z,14.60
2023-02-11T04:29:15.110Z,13.19
2023-02-11T04:30:15.129Z,13.30
2023-02-11T04:31:15.404Z,15.39
2023-02-11T04:32:15.085Z,15.19
2023-02-11T04:33:15.068Z,14.50
2023-02-11T04:34:15.068Z,14.00
2023-02-11T04:35:15.070Z,15.19
2023-02-11T04:36:15.043Z,13.69
2023-02-11T04:37:15.037Z,13.80
2023-02-11T04:38:15.025Z,14.00
2023-02-11T04:39:15.016Z,15.19
2023-02-11T04:40:15.010Z,14.39
2023-02-11T04:41:14.995Z,14.10
2023-02-11T04:42:14.999Z,14.69
2023-02-11T04:43:14.966Z,14.00
2023-02-11T04:44:14.965Z,12.80
2023-02-11T04:45:14.944Z,13.00
2023-02-11T04:46:15.009Z,13.30
2023-02-11T04:47:14.927Z,14.69
2023-02-11T04:48:14.930Z,14.89
2023-02-11T04:49:14.921Z,14.30
2023-02-11T04:50:14.908Z,14.50
2023-02-11T04:51:14.908Z,14.19
2023-02-11T04:52:14.881Z,15.19
2023-02-11T04:53:14.881Z,13.39
2023-02-11T04:54:15.068Z,13.10
2023-02-11T04:55:14.842Z,14.10
2023-02-11T04:56:14.842Z,15.50
2023-02-11T04:57:14.828Z,15.69
2023-02-11T04:58:14.818Z,15.69
2023-02-11T04:59:14.808Z,16.60
2023-02-11T05:00:14.815Z,15.50
2023-02-11T05:01:14.853Z,12.30
2023-02-11T05:02:14.782Z,15.10
2023-02-11T05:03:14.774Z,14.80
2023-02-11T05:04:20.877Z,12.89
2023-02-11T05:05:14.741Z,15.10
2023-02-11T05:06:14.737Z,14.39
2023-02-11T05:07:14.738Z,12.30
2023-02-11T05:08:14.729Z,13.50
2023-02-11T05:09:20.714Z,13.30
2023-02-11T05:10:14.698Z,14.39
2023-02-11T05:11:14.696Z,12.39
2023-02-11T05:12:14.711Z,13.50
2023-02-11T05:13:14.655Z,12.69
2023-02-11T05:14:14.664Z,14.10
2023-02-11T05:15:20.651Z,14.10
2023-02-11T05:16:14.723Z,13.80
2023-02-11T05:17:14.617Z,14.39
2023-02-11T05:18:14.618Z,14.89
2023-02-11T05:19:14.601Z,13.50
2023-02-11T06:13:14.049Z,15.19
2023-02-11T07:04:13.494Z,22.50
2023-02-11T07:05:13.479Z,21.60
2023-02-11T07:06:13.476Z,22.39
2023-02-11T07:07:13.452Z,22.10
2023-02-11T07:08:13.465Z,20.60
2023-02-11T07:09:13.437Z,21.89
2023-02-11T07:10:13.430Z,20.89
2023-02-11T07:11:13.416Z,21.39
2023-02-11T07:12:13.416Z,22.50
2023-02-11T07:13:13.391Z,21.20
2023-02-11T07:14:13.420Z,22.10
2023-02-11T07:15:13.377Z,20.50
2023-02-11T07:16:13.497Z,22.10
2023-02-11T07:17:13.352Z,20.20
2023-02-11T07:18:14.752Z,20.79
2023-02-11T07:19:13.329Z,20.89
2023-02-11T07:20:13.327Z,21.79
2023-02-11T07:21:13.314Z,20.89
2023-02-11T07:22:13.313Z,21.29
2023-02-11T07:23:13.294Z,21.70
2023-02-11T07:24:13.503Z,20.79
2023-02-11T07:25:13.267Z,19.10
2023-02-11T07:26:13.272Z,23.00
2023-02-11T07:27:13.253Z,22.39
2023-02-11T07:28:13.283Z,20.79
2023-02-11T07:29:13.433Z,21.20
2023-02-11T07:30:13.258Z,19.89
2023-02-11T07:31:13.426Z,20.79
2023-02-11T07:32:13.362Z,19.39
2023-02-11T07:33:13.197Z,19.20
2023-02-11T07:34:13.186Z,18.79
2023-02-11T07:35:13.171Z,18.89
2023-02-11T07:36:13.175Z,18.50
2023-02-11T07:37:13.149Z,18.70
2023-02-11T07:38:13.148Z,19.20
2023-02-11T07:39:13.242Z,19.70
2023-02-11T07:40:13.128Z,20.70
2023-02-11T07:41:13.115Z,20.29
2023-02-11T07:42:13.108Z,17.20
2023-02-11T07:43:13.090Z,16.60
2023-02-11T07:44:13.281Z,16.50
2023-02-11T07:45:13.065Z,17.29
2023-02-11T07:46:13.114Z,17.29
2023-02-11T07:47:13.049Z,17.50
2023-02-11T07:48:19.044Z,16.39
2023-02-11T07:49:19.044Z,17.39
2023-02-11T07:50:13.019Z,17.39
2023-02-11T07:51:13.016Z,17.60
2023-02-11T07:52:12.991Z,20.89
2023-02-11T07:53:12.994Z,18.10
2023-02-11T07:54:12.986Z,19.89
2023-02-11T07:55:12.970Z,18.70
2023-02-11T07:56:12.962Z,18.39
2023-02-11T07:57:12.955Z,19.89
2023-02-11T07:58:12.932Z,17.79
2023-02-11T07:59:12.943Z,19.00
2023-02-11T08:00:12.917Z,19.10
2023-02-11T08:01:13.238Z,18.50
2023-02-11T08:02:12.988Z,19.60
2023-02-11T08:03:12.897Z,19.20
2023-02-11T08:04:12.896Z,19.00
2023-02-11T08:05:12.874Z,19.29
2023-02-11T08:06:18.865Z,19.50
2023-02-11T08:07:12.846Z,16.70
2023-02-11T08:08:12.840Z,18.00
2023-02-11T08:09:12.833Z,18.00
2023-02-11T08:10:12.808Z,17.10
2023-02-11T08:11:12.812Z,15.00
2023-02-11T08:12:12.990Z,13.69
2023-02-11T08:13:12.785Z,13.39
2023-02-11T08:14:12.772Z,13.60
2023-02-11T08:15:12.763Z,15.39
2023-02-11T08:16:12.757Z,13.39
2023-02-11T08:17:12.747Z,13.00
2023-02-11T08:18:12.946Z,12.69
2023-02-11T08:19:12.722Z,14.50
2023-02-11T08:20:12.705Z,13.39
2023-02-11T08:21:12.702Z,14.89
2023-02-11T08:22:12.681Z,12.50
2023-02-11T08:23:12.688Z,13.89
2023-02-11T08:24:12.698Z,13.60
2023-02-11T08:25:12.655Z,13.19
2023-02-11T08:26:12.646Z,12.60
2023-02-11T08:27:12.636Z,12.69
2023-02-11T08:28:12.886Z,14.39
2023-02-11T08:29:12.620Z,13.60
2023-02-11T08:30:12.598Z,11.60
2023-02-11T08:31:12.670Z,13.39
2023-02-11T08:32:12.620Z,14.50
2023-02-11T08:33:12.579Z,13.00
2023-02-11T08:34:12.584Z,14.00
2023-02-11T08:35:12.579Z,13.60
2023-02-11T08:36:12.541Z,12.00
2023-02-11T08:37:12.532Z,12.89
2023-02-11T08:38:12.518Z,13.80
2023-02-11T08:39:19.036Z,14.39
2023-02-11T08:40:13.551Z,13.00
2023-02-11T08:41:12.495Z,14.69
2023-02-11T08:42:12.472Z,12.19
2023-02-11T08:43:12.486Z,14.10
2023-02-11T08:44:12.454Z,13.69
2023-02-11T08:45:12.448Z,12.89
2023-02-11T08:46:12.538Z,12.89
2023-02-11T08:47:12.431Z,12.30
2023-02-11T08:48:12.426Z,14.10
2023-02-11T08:49:12.414Z,14.39
2023-02-11T08:50:12.414Z,13.80
2023-02-11T08:51:12.395Z,16.60
2023-02-11T08:52:12.369Z,14.00
2023-02-11T08:53:12.377Z,15.89
2023-02-11T08:54:12.352Z,12.30
2023-02-11T08:55:12.345Z,15.00
2023-02-11T08:56:13.598Z,13.00
2023-02-11T08:57:12.332Z,13.80
2023-02-11T08:58:12.313Z,12.80
2023-02-11T08:59:12.310Z,13.10
2023-02-11T09:00:18.297Z,13.60
2023-02-11T09:01:12.423Z,13.10
2023-02-11T09:02:12.288Z,14.19
2023-02-11T09:03:12.262Z,12.39
2023-02-11T09:04:12.259Z,13.19
2023-02-11T09:05:12.244Z,11.50
2023-02-11T09:06:12.254Z,14.10
2023-02-11T09:07:12.220Z,13.69
2023-02-11T09:08:12.212Z,12.60
2023-02-11T09:09:12.210Z,13.89
2023-02-11T09:10:18.189Z,12.50
2023-02-11T09:11:12.184Z,14.39
2023-02-11T09:12:12.166Z,12.39
2023-02-11T09:13:12.160Z,14.00
2023-02-11T09:14:12.153Z,14.80
2023-02-11T09:15:12.141Z,12.80
2023-02-11T09:16:12.217Z,13.60
2023-02-11T09:17:12.117Z,12.60
2023-02-11T09:18:12.093Z,13.00
2023-02-11T09:19:12.097Z,14.10
2023-02-11T09:20:12.088Z,13.19
2023-02-11T09:21:12.070Z,12.00
2023-02-11T09:22:12.083Z,12.39
2023-02-11T09:23:12.257Z,10.60
2023-02-11T09:24:12.030Z,12.80
2023-02-11T09:25:12.039Z,12.30
2023-02-11T09:26:12.015Z,11.19
2023-02-11T09:27:12.018Z,12.00
2023-02-11T09:28:12.054Z,13.50
2023-02-11T09:29:11.994Z,12.50
2023-02-11T09:30:11.974Z,13.00
2023-02-11T09:31:12.100Z,14.00
2023-02-11T09:32:12.192Z,11.50
2023-02-11T09:33:11.946Z,12.10
2023-02-11T09:34:11.938Z,13.19
2023-02-11T09:35:11.930Z,10.39
2023-02-11T09:36:11.925Z,12.50
2023-02-11T09:37:11.921Z,13.00
2023-02-11T09:38:11.923Z,13.10
2023-02-11T09:39:11.905Z,11.00
2023-02-11T09:40:11.871Z,12.39
2023-02-11T09:41:11.869Z,13.19
2023-02-11T09:42:11.854Z,12.00
2023-02-11T09:43:11.853Z,13.80
2023-02-11T09:44:11.830Z,13.50
2023-02-11T09:45:11.822Z,14.00
2023-02-11T09:46:12.246Z,11.30
2023-02-11T09:47:11.803Z,12.89
2023-02-11T09:48:11.795Z,13.19
2023-02-11T09:49:11.791Z,14.10
2023-02-11T09:50:11.774Z,11.60
2023-02-11T09:51:11.768Z,13.69
2023-02-11T09:52:11.744Z,13.10
2023-02-11T09:53:11.738Z,14.80
2023-02-11T09:54:11.748Z,14.19
2023-02-11T09:55:11.721Z,13.89
2023-02-11T09:56:11.703Z,14.39
2023-02-11T09:57:26.580Z,11.69
2023-02-11T09:58:12.748Z,13.80
2023-02-11T09:59:11.680Z,13.80
2023-02-11T10:00:11.688Z,12.60
2023-02-11T10:01:11.706Z,13.89
2023-02-11T10:02:11.652Z,13.50
2023-02-11T10:03:11.636Z,13.50
2023-02-11T10:04:11.652Z,13.00
2023-02-11T10:05:11.622Z,14.00
2023-02-11T10:06:11.597Z,13.89
2023-02-11T10:07:11.604Z,14.30
2023-02-11T10:08:11.579Z,13.80
2023-02-11T10:09:42.344Z,12.10
2023-02-11T10:10:42.306Z,12.39
2023-02-11T10:11:42.290Z,13.39
2023-02-11T10:12:48.329Z,13.80
2023-02-11T10:13:42.753Z,13.00
2023-02-11T10:14:48.277Z,13.30
2023-02-11T10:15:42.298Z,14.00
2023-02-11T10:16:42.244Z,12.50
2023-02-11T10:17:42.236Z,13.00
2023-02-11T10:18:42.226Z,13.80
2023-02-11T10:19:42.218Z,13.60
2023-02-11T10:20:42.201Z,13.10
2023-02-11T10:21:42.187Z,12.80
2023-02-11T10:22:42.192Z,13.50
2023-02-11T10:23:42.165Z,14.10
2023-02-11T10:24:42.165Z,13.30
2023-02-11T10:25:44.952Z,13.50
2023-02-11T10:26:42.146Z,14.19
2023-02-11T10:27:42.122Z,13.39
2023-02-11T10:28:42.241Z,13.19
2023-02-11T10:29:42.115Z,12.60
2023-02-11T10:30:42.143Z,13.80
2023-02-11T10:31:42.266Z,14.10
2023-02-11T10:32:42.076Z,13.69
2023-02-11T10:33:42.063Z,12.80
2023-02-11T10:34:42.052Z,13.00
2023-02-11T10:35:42.034Z,12.69
2023-02-11T10:36:42.041Z,12.30
2023-02-11T10:37:44.457Z,11.50
2023-02-11T10:38:42.098Z,12.69
2023-02-11T10:39:41.994Z,12.69
2023-02-11T10:40:41.993Z,12.50
2023-02-11T10:41:42.004Z,12.30
2023-02-11T10:42:41.974Z,12.69
2023-02-11T10:43:41.953Z,11.89
2023-02-11T10:44:41.950Z,11.50
2023-02-11T10:45:41.932Z,11.39
2023-02-11T10:46:42.005Z,12.30
2023-02-11T10:47:41.914Z,12.39
2023-02-11T10:48:42.229Z,12.19
2023-02-11T10:49:41.897Z,12.50
2023-02-11T10:50:41.879Z,11.39
2023-02-11T10:51:42.082Z,12.50
2023-02-11T10:52:41.855Z,11.89
2023-02-11T10:53:41.875Z,11.50
2023-02-11T10:54:41.835Z,11.80
2023-02-11T10:55:41.842Z,11.60
2023-02-11T10:56:41.817Z,12.00
2023-02-11T10:57:41.832Z,12.69
2023-02-11T10:58:41.905Z,12.30
2023-02-11T10:59:41.792Z,12.00
2023-02-11T11:00:41.770Z,12.30
2023-02-11T11:01:41.808Z,13.60
2023-02-11T11:02:41.750Z,11.89
2023-02-11T11:03:41.750Z,11.60
2023-02-11T11:04:41.764Z,12.80
2023-02-11T11:05:41.730Z,12.50
2023-02-11T11:06:41.707Z,12.80
2023-02-11T11:07:41.905Z,11.69
2023-02-11T11:08:41.708Z,12.00
2023-02-11T11:09:41.684Z,11.60
2023-02-11T11:10:41.668Z,14.30
2023-02-11T11:11:41.665Z,13.19
2023-02-11T11:12:42.363Z,12.10
2023-02-11T11:13:50.094Z,10.89
2023-02-11T11:14:41.632Z,10.80
2023-02-11T11:15:41.645Z,11.19
2023-02-11T11:16:41.606Z,11.00
2023-02-11T11:17:41.598Z,11.89
2023-02-11T11:18:41.711Z,10.80
2023-02-11T11:19:41.580Z,11.50
2023-02-11T11:20:41.560Z,11.30
2023-02-11T11:21:41.554Z,10.30
2023-02-11T11:22:41.540Z,11.30
2023-02-11T11:23:41.535Z,11.30
2023-02-11T11:24:41.533Z,10.89
2023-02-11T11:25:41.517Z,11.00
2023-02-11T11:26:41.509Z,11.10
2023-02-11T11:27:41.492Z,9.50
2023-02-11T11:28:41.483Z,10.69
2023-02-11T11:29:41.501Z,10.30
2023-02-11T11:30:41.513Z,9.69
2023-02-11T11:31:41.700Z,9.50
2023-02-11T11:32:41.431Z,10.19
2023-02-11T11:33:41.632Z,10.00
2023-02-11T11:34:47.623Z,9.89
2023-02-11T11:35:41.406Z,10.10
2023-02-11T11:36:41.389Z,9.00
2023-02-11T11:37:41.388Z,8.89
2023-02-11T11:38:41.360Z,8.10
2023-02-11T11:39:41.363Z,8.60
2023-02-11T11:40:41.346Z,10.00
2023-02-11T11:41:41.338Z,9.30
2023-02-11T11:42:41.319Z,9.50
2023-02-11T11:43:47.326Z,8.89
2023-02-11T11:44:47.326Z,9.10
2023-02-11T11:45:41.294Z,8.89
2023-02-11T11:46:41.335Z,9.19
2023-02-11T11:47:41.270Z,8.60
2023-02-11T11:48:41.366Z,9.10
2023-02-11T11:49:41.254Z,9.19
2023-02-11T11:50:41.232Z,9.10
2023-02-11T11:51:41.233Z,9.00
2023-02-11T11:52:47.216Z,9.10
2023-02-11T11:53:41.215Z,9.00
2023-02-11T11:54:41.189Z,8.89
2023-02-11T11:55:41.181Z,8.60
2023-02-11T11:56:41.180Z,8.39
2023-02-11T11:57:41.165Z,8.69
2023-02-11T11:58:41.144Z,8.89
2023-02-11T11:59:41.347Z,8.69
2023-02-11T12:00:41.157Z,8.19
2023-02-11T12:01:41.200Z,8.10
2023-02-11T12:02:41.144Z,8.10
2023-02-11T12:03:47.108Z,8.39
2023-02-11T12:04:41.078Z,8.10
2023-02-11T12:05:47.085Z,7.69
2023-02-11T12:06:41.084Z,8.30
2023-02-11T12:07:47.066Z,7.69
2023-02-11T12:08:41.238Z,7.09
2023-02-11T12:09:41.033Z,8.50
2023-02-11T12:10:41.018Z,7.59
2023-02-11T12:11:41.014Z,7.90
2023-02-11T12:12:40.992Z,7.50
2023-02-11T12:13:40.994Z,7.30
2023-02-11T12:14:40.977Z,8.19
2023-02-11T12:15:40.978Z,9.89
2023-02-11T12:16:41.211Z,7.30
2023-02-11T12:17:40.954Z,7.30
2023-02-11T12:18:40.932Z,6.80
2023-02-11T12:19:46.938Z,6.69
2023-02-11T12:20:40.918Z,7.69
2023-02-11T12:21:40.909Z,7.80
2023-02-11T12:22:40.889Z,5.90
2023-02-11T12:23:47.091Z,7.09
2023-02-11T12:24:40.867Z,6.40
2023-02-11T12:25:40.859Z,6.59
2023-02-11T12:26:40.847Z,6.50
2023-02-11T12:27:46.854Z,6.09
2023-02-11T12:28:41.004Z,6.50
2023-02-11T12:29:40.822Z,6.59
2023-02-11T12:30:40.835Z,6.00
2023-02-11T12:31:41.111Z,6.40
2023-02-11T12:32:40.844Z,6.50
2023-02-11T12:33:46.788Z,6.59
2023-02-11T12:34:40.757Z,7.00
2023-02-11T12:35:40.757Z,6.50
2023-02-11T12:36:40.755Z,6.50
2023-02-11T12:37:40.737Z,6.80
2023-02-11T12:38:40.718Z,6.00
2023-02-11T12:39:46.725Z,5.69
2023-02-11T12:40:40.694Z,5.69
2023-02-11T12:41:40.699Z,6.80
2023-02-11T12:42:40.679Z,6.19
2023-02-11T12:43:40.675Z,5.50
2023-02-11T12:44:40.656Z,5.59
2023-02-11T12:45:40.894Z,6.19
2023-02-11T12:46:40.629Z,6.80
2023-02-11T12:47:40.638Z,6.80
2023-02-11T12:48:40.726Z,6.80
2023-02-11T12:49:40.612Z,7.40
2023-02-11T12:50:40.594Z,6.30
2023-02-11T12:51:40.591Z,6.19
2023-02-11T12:52:40.565Z,6.00
2023-02-11T12:53:40.564Z,6.09
2023-02-11T12:54:40.548Z,6.40
2023-02-11T12:55:40.554Z,6.30
2023-02-11T12:56:40.531Z,6.40
2023-02-11T12:57:40.522Z,6.00
2023-02-11T12:58:45.377Z,6.00
2023-02-11T12:59:40.511Z,5.69
2023-02-11T13:00:40.492Z,6.19
2023-02-11T13:01:40.589Z,5.69
2023-02-11T13:02:40.570Z,7.19
2023-02-11T13:03:46.714Z,5.59
2023-02-11T13:04:40.451Z,6.30
2023-02-11T13:05:40.658Z,6.50
2023-02-11T13:06:40.429Z,6.40
2023-02-11T13:07:40.420Z,6.00
2023-02-11T13:08:40.408Z,6.09
2023-02-11T13:09:40.405Z,6.09
2023-02-11T13:10:40.398Z,6.30
2023-02-11T13:11:40.376Z,6.69
2023-02-11T13:12:40.358Z,6.50
2023-02-11T13:13:40.360Z,6.00
2023-02-11T13:14:40.339Z,5.50
2023-02-11T13:15:40.336Z,5.40
2023-02-11T13:16:40.421Z,6.09
2023-02-11T13:17:40.314Z,6.00
2023-02-11T13:18:46.303Z,6.00
2023-02-11T13:19:40.517Z,6.09
2023-02-11T13:20:40.270Z,5.80
2023-02-11T13:21:40.279Z,5.69
2023-02-11T13:22:40.265Z,6.30
2023-02-11T13:23:40.456Z,5.69
2023-02-11T13:24:40.234Z,6.09
2023-02-11T13:25:40.225Z,5.90
2023-02-11T13:26:40.210Z,6.09
2023-02-11T13:27:46.213Z,5.90
2023-02-11T13:30:05.792Z,5.69
2023-02-11T13:31:06.073Z,5.69
2023-02-11T13:32:05.809Z,6.09
2023-02-11T13:33:05.761Z,5.69
2023-02-11T13:34:05.736Z,5.80
2023-02-11T13:35:05.959Z,6.09
2023-02-11T13:36:11.723Z,6.00
2023-02-11T13:37:05.714Z,6.00
2023-02-11T13:38:05.694Z,5.80
2023-02-11T13:39:05.725Z,6.19
2023-02-11T13:40:05.681Z,6.00
2023-02-11T13:41:05.871Z,5.50
2023-02-11T13:42:05.656Z,6.00
2023-02-11T13:43:05.652Z,6.80
2023-02-11T13:44:05.631Z,6.09
2023-02-11T13:45:05.833Z,6.30
2023-02-11T13:46:05.654Z,6.19
2023-02-11T13:47:05.620Z,6.09
2023-02-11T13:48:05.598Z,6.19
2023-02-11T13:49:05.592Z,6.00
2023-02-11T13:50:05.581Z,5.90
2023-02-11T13:51:11.598Z,6.40
2023-02-11T13:52:05.548Z,6.40
2023-02-11T13:53:05.649Z,5.90
2023-02-11T13:54:05.533Z,5.80
2023-02-11T13:55:05.521Z,6.00
2023-02-11T13:56:05.513Z,6.30
2023-02-11T13:57:05.508Z,6.50
2023-02-11T13:58:05.496Z,6.19
2023-02-11T13:59:05.499Z,6.30
2023-02-11T14:00:05.470Z,6.40
2023-02-11T14:01:05.502Z,6.19
2023-02-11T14:02:05.484Z,6.40
2023-02-11T14:03:05.437Z,6.09
2023-02-11T14:04:05.420Z,6.00
2023-02-11T14:05:11.425Z,6.50
2023-02-11T14:06:05.405Z,6.80
2023-02-11T14:07:05.624Z,6.00
2023-02-11T14:08:05.483Z,6.19
2023-02-11T14:09:05.381Z,6.59
2023-02-11T14:10:05.573Z,6.19
2023-02-11T14:11:05.348Z,6.80
2023-02-11T14:12:05.349Z,6.19
2023-02-11T14:13:05.333Z,6.19
2023-02-11T14:14:05.529Z,6.19
2023-02-11T14:15:07.716Z,6.69
2023-02-11T14:16:05.505Z,6.59
2023-02-11T14:17:05.324Z,5.50
2023-02-11T14:18:05.284Z,6.59
2023-02-11T14:19:05.270Z,6.30
2023-02-11T14:20:05.292Z,7.30
2023-02-11T14:21:11.450Z,6.80
2023-02-11T14:22:05.248Z,6.09
2023-02-11T14:23:07.334Z,6.59
2023-02-11T14:24:05.251Z,6.69
2023-02-11T14:25:05.214Z,5.90
2023-02-11T14:26:05.202Z,6.19
2023-02-11T14:27:05.204Z,7.30
2023-02-11T14:28:05.246Z,6.69
2023-02-11T14:29:05.175Z,6.09
2023-02-11T14:30:05.149Z,6.00
2023-02-11T14:31:05.307Z,6.80
2023-02-11T14:32:06.124Z,6.59
2023-02-11T14:33:05.135Z,6.69
2023-02-11T14:34:11.121Z,6.90
2023-02-11T14:35:05.123Z,6.40
2023-02-11T14:36:05.093Z,6.80
2023-02-11T14:37:05.088Z,6.80
2023-02-11T14:38:05.072Z,7.19
2023-02-11T14:39:05.097Z,6.50
2023-02-11T14:40:05.043Z,6.50
2023-02-11T14:41:05.047Z,7.30
2023-02-11T14:42:05.058Z,6.80
2023-02-11T14:43:05.027Z,7.09
2023-02-11T14:44:11.020Z,7.50
2023-02-11T14:45:05.011Z,7.19
2023-02-11T14:46:05.047Z,6.69
2023-02-11T14:47:10.988Z,7.19
2023-02-11T14:48:04.963Z,7.30
2023-02-11T14:49:10.965Z,7.19
2023-02-11T14:50:04.958Z,6.80
2023-02-11T14:52:19.800Z,6.90
2023-02-11T14:53:19.792Z,6.30
2023-02-11T14:54:19.801Z,6.69
2023-02-11T14:55:19.770Z,6.59
2023-02-11T14:56:19.754Z,6.90
2023-02-11T14:57:19.750Z,6.59
2023-02-11T14:58:19.720Z,6.50
2023-02-11T14:59:19.721Z,7.30
2023-02-11T15:00:19.984Z,6.59
2023-02-11T15:01:19.710Z,8.00
2023-02-11T15:02:19.786Z,7.69
2023-02-11T15:03:19.671Z,7.50
2023-02-11T15:04:25.680Z,6.59
2023-02-11T15:05:19.648Z,7.00
2023-02-11T15:06:25.662Z,7.19
2023-02-11T15:07:19.831Z,7.09
2023-02-11T15:08:19.628Z,7.80
2023-02-11T15:09:19.612Z,7.69
2023-02-11T15:10:19.623Z,8.19
2023-02-11T15:11:19.599Z,7.59
2023-02-11T15:12:19.582Z,7.59
2023-02-11T15:13:19.560Z,6.90
2023-02-11T15:14:19.561Z,7.50
2023-02-11T15:15:19.548Z,6.50
2023-02-11T15:16:19.686Z,7.19
2023-02-11T15:17:19.526Z,7.59
2023-02-11T15:18:19.535Z,6.90
2023-02-11T15:19:20.021Z,6.80
2023-02-11T15:20:19.496Z,6.90
2023-02-11T15:21:19.485Z,7.59
2023-02-11T15:22:19.677Z,7.00
2023-02-11T15:23:19.459Z,7.09
2023-02-11T15:24:19.457Z,6.90
2023-02-11T15:25:19.637Z,7.09
2023-02-11T15:26:19.458Z,7.19
2023-02-11T15:27:19.431Z,7.69
2023-02-11T15:28:19.447Z,6.80
2023-02-11T15:29:19.432Z,6.69
2023-02-11T15:30:19.593Z,7.19
2023-02-11T15:31:19.490Z,7.80
2023-02-11T15:32:19.537Z,7.19
2023-02-11T15:33:19.355Z,8.10
2023-02-11T15:34:25.359Z,7.80
2023-02-11T15:35:19.365Z,7.69
2023-02-11T15:36:19.330Z,7.69
2023-02-11T15:37:19.515Z,8.80
2023-02-11T15:38:19.310Z,8.10
2023-02-11T15:39:19.298Z,8.89
2023-02-11T15:40:19.292Z,8.19
2023-02-11T15:41:19.267Z,8.60
2023-02-11T15:42:19.500Z,9.00
2023-02-11T15:43:19.244Z,7.80
2023-02-11T15:44:19.244Z,8.60
2023-02-11T15:45:19.229Z,9.10
2023-02-11T15:46:19.310Z,8.19
2023-02-11T15:47:19.205Z,8.19
2023-02-11T15:48:19.196Z,8.30
2023-02-11T15:49:19.266Z,8.50
2023-02-11T15:50:19.199Z,7.69